sensor_id;sensor_type;location;lat;lon;timestamp;pressure;altitude;pressure_sealevel;temperature;humidity
70250;BME280;57644;48.416;-123.374;2022-10-16T00:02:08;101346.90;;;12.87;54.80
70250;BME280;57644;48.416;-123.374;2022-10-16T00:04:38;101352.13;;;12.71;55.36
70250;BME280;57644;48.416;-123.374;2022-10-16T00:07:08;101351.14;;;12.51;56.23
70250;BME280;57644;48.416;-123.374;2022-10-16T00:09:38;101348.57;;;12.34;56.55
70250;BME280;57644;48.416;-123.374;2022-10-16T00:12:09;101349.81;;;12.21;57.32
70250;BME280;57644;48.416;-123.374;2022-10-16T00:14:39;101346.11;;;12.05;58.02
70250;BME280;57644;48.416;-123.374;2022-10-16T00:17:09;101349.20;;;11.94;57.79
70250;BME280;57644;48.416;-123.374;2022-10-16T00:19:40;101343.11;;;11.83;58.08
70250;BME280;57644;48.416;-123.374;2022-10-16T00:22:10;101341.86;;;11.71;58.49
70250;BME280;57644;48.416;-123.374;2022-10-16T00:24:40;101339.56;;;11.59;58.88
70250;BME280;57644;48.416;-123.374;2022-10-16T00:27:10;101338.21;;;11.54;59.20
70250;BME280;57644;48.416;-123.374;2022-10-16T00:29:41;101338.09;;;11.41;59.69
70250;BME280;57644;48.416;-123.374;2022-10-16T00:32:11;101337.65;;;11.32;60.04
70250;BME280;57644;48.416;-123.374;2022-10-16T00:34:42;101336.61;;;11.25;60.53
70250;BME280;57644;48.416;-123.374;2022-10-16T00:37:12;101335.47;;;11.14;61.21
70250;BME280;57644;48.416;-123.374;2022-10-16T00:39:43;101332.15;;;11.10;60.84
70250;BME280;57644;48.416;-123.374;2022-10-16T00:42:16;101334.46;;;10.97;61.35
70250;BME280;57644;48.416;-123.374;2022-10-16T00:44:48;101334.43;;;10.89;61.74
70250;BME280;57644;48.416;-123.374;2022-10-16T00:47:19;101330.74;;;10.77;61.84
70250;BME280;57644;48.416;-123.374;2022-10-16T00:49:46;101329.13;;;10.74;62.16
70250;BME280;57644;48.416;-123.374;2022-10-16T00:52:16;101326.64;;;10.67;62.27
70250;BME280;57644;48.416;-123.374;2022-10-16T00:54:47;101325.14;;;10.64;62.42
70250;BME280;57644;48.416;-123.374;2022-10-16T00:57:16;101324.76;;;10.61;62.48
70250;BME280;57644;48.416;-123.374;2022-10-16T00:59:47;101325.11;;;10.58;62.80
70250;BME280;57644;48.416;-123.374;2022-10-16T01:02:18;101326.94;;;10.52;63.05
70250;BME280;57644;48.416;-123.374;2022-10-16T01:04:50;101322.66;;;10.50;63.12
70250;BME280;57644;48.416;-123.374;2022-10-16T01:07:29;101317.19;;;10.43;63.12
70250;BME280;57644;48.416;-123.374;2022-10-16T01:09:57;101318.29;;;10.40;63.34
70250;BME280;57644;48.416;-123.374;2022-10-16T01:12:26;101323.70;;;10.36;63.16
70250;BME280;57644;48.416;-123.374;2022-10-16T01:14:54;101324.99;;;10.28;63.38
70250;BME280;57644;48.416;-123.374;2022-10-16T01:17:26;101329.14;;;10.23;63.43
70250;BME280;57644;48.416;-123.374;2022-10-16T01:20:00;101328.16;;;10.17;63.46
70250;BME280;57644;48.416;-123.374;2022-10-16T01:22:25;101327.97;;;10.10;63.64
70250;BME280;57644;48.416;-123.374;2022-10-16T01:24:54;101330.31;;;10.03;64.12
70250;BME280;57644;48.416;-123.374;2022-10-16T01:27:26;101330.54;;;9.96;63.92
70250;BME280;57644;48.416;-123.374;2022-10-16T01:29:56;101329.92;;;9.90;64.08
70250;BME280;57644;48.416;-123.374;2022-10-16T01:32:30;101330.41;;;9.81;64.46
70250;BME280;57644;48.416;-123.374;2022-10-16T01:34:56;101329.83;;;9.74;64.57
70250;BME280;57644;48.416;-123.374;2022-10-16T01:37:32;101326.87;;;9.64;64.86
70250;BME280;57644;48.416;-123.374;2022-10-16T01:39:56;101327.31;;;9.60;64.94
70250;BME280;57644;48.416;-123.374;2022-10-16T01:42:28;101329.01;;;9.54;65.19
70250;BME280;57644;48.416;-123.374;2022-10-16T01:44:55;101335.55;;;9.46;65.97
70250;BME280;57644;48.416;-123.374;2022-10-16T01:47:26;101339.45;;;9.45;65.48
70250;BME280;57644;48.416;-123.374;2022-10-16T01:49:57;101342.68;;;9.37;65.87
70250;BME280;57644;48.416;-123.374;2022-10-16T01:52:27;101347.27;;;9.28;66.18
70250;BME280;57644;48.416;-123.374;2022-10-16T01:54:57;101352.11;;;9.20;66.63
70250;BME280;57644;48.416;-123.374;2022-10-16T01:57:27;101354.36;;;9.16;66.95
70250;BME280;57644;48.416;-123.374;2022-10-16T02:00:05;101356.90;;;9.09;66.74
70250;BME280;57644;48.416;-123.374;2022-10-16T02:02:30;101355.45;;;9.04;67.25
70250;BME280;57644;48.416;-123.374;2022-10-16T02:05:02;101354.65;;;8.99;67.46
70250;BME280;57644;48.416;-123.374;2022-10-16T02:07:28;101355.63;;;8.65;69.16
70250;BME280;57644;48.416;-123.374;2022-10-16T02:10:00;101350.75;;;8.46;70.28
70250;BME280;57644;48.416;-123.374;2022-10-16T02:12:32;101349.05;;;8.41;70.39
70250;BME280;57644;48.416;-123.374;2022-10-16T02:15:00;101349.58;;;8.34;70.03
70250;BME280;57644;48.416;-123.374;2022-10-16T02:17:30;101346.17;;;8.28;70.07
70250;BME280;57644;48.416;-123.374;2022-10-16T02:20:01;101343.96;;;8.21;71.16
70250;BME280;57644;48.416;-123.374;2022-10-16T02:22:35;101347.61;;;8.20;71.23
70250;BME280;57644;48.416;-123.374;2022-10-16T02:25:06;101346.51;;;8.21;70.77
70250;BME280;57644;48.416;-123.374;2022-10-16T02:27:35;101352.70;;;8.12;71.65
70250;BME280;57644;48.416;-123.374;2022-10-16T02:30:07;101348.04;;;8.24;70.62
70250;BME280;57644;48.416;-123.374;2022-10-16T02:32:33;101349.38;;;8.36;70.01
70250;BME280;57644;48.416;-123.374;2022-10-16T02:35:03;101350.38;;;8.32;70.63
70250;BME280;57644;48.416;-123.374;2022-10-16T02:37:33;101351.40;;;8.31;70.15
70250;BME280;57644;48.416;-123.374;2022-10-16T02:40:04;101353.42;;;8.35;69.68
70250;BME280;57644;48.416;-123.374;2022-10-16T02:42:35;101353.34;;;8.39;69.59
70250;BME280;57644;48.416;-123.374;2022-10-16T02:45:04;101353.16;;;8.41;69.27
70250;BME280;57644;48.416;-123.374;2022-10-16T02:47:34;101355.67;;;8.42;69.23
70250;BME280;57644;48.416;-123.374;2022-10-16T02:50:05;101352.89;;;8.24;69.98
70250;BME280;57644;48.416;-123.374;2022-10-16T02:52:36;101355.65;;;8.16;70.59
70250;BME280;57644;48.416;-123.374;2022-10-16T02:55:06;101356.68;;;8.20;70.25
70250;BME280;57644;48.416;-123.374;2022-10-16T02:57:35;101363.14;;;8.24;69.80
70250;BME280;57644;48.416;-123.374;2022-10-16T03:00:08;101361.70;;;8.25;70.07
70250;BME280;57644;48.416;-123.374;2022-10-16T03:02:38;101363.97;;;8.25;69.69
70250;BME280;57644;48.416;-123.374;2022-10-16T03:05:07;101364.64;;;8.18;70.98
70250;BME280;57644;48.416;-123.374;2022-10-16T03:07:37;101358.93;;;7.96;71.45
70250;BME280;57644;48.416;-123.374;2022-10-16T03:10:08;101357.90;;;8.01;71.18
70250;BME280;57644;48.416;-123.374;2022-10-16T03:12:37;101359.28;;;7.98;71.54
70250;BME280;57644;48.416;-123.374;2022-10-16T03:15:08;101357.45;;;8.00;71.16
70250;BME280;57644;48.416;-123.374;2022-10-16T03:17:37;101360.00;;;7.97;71.22
70250;BME280;57644;48.416;-123.374;2022-10-16T03:20:08;101360.76;;;7.71;72.82
70250;BME280;57644;48.416;-123.374;2022-10-16T03:22:39;101361.94;;;7.69;72.48
70250;BME280;57644;48.416;-123.374;2022-10-16T03:25:09;101360.06;;;7.75;72.83
70250;BME280;57644;48.416;-123.374;2022-10-16T03:27:39;101356.97;;;7.76;72.71
70250;BME280;57644;48.416;-123.374;2022-10-16T03:30:10;101358.29;;;7.83;72.33
70250;BME280;57644;48.416;-123.374;2022-10-16T03:32:39;101360.53;;;7.95;71.76
70250;BME280;57644;48.416;-123.374;2022-10-16T03:35:10;101365.06;;;7.98;71.90
70250;BME280;57644;48.416;-123.374;2022-10-16T03:37:41;101371.11;;;8.10;71.29
70250;BME280;57644;48.416;-123.374;2022-10-16T03:40:11;101372.59;;;8.09;71.84
70250;BME280;57644;48.416;-123.374;2022-10-16T03:42:42;101373.44;;;8.13;71.43
70250;BME280;57644;48.416;-123.374;2022-10-16T03:45:12;101375.41;;;8.14;71.07
70250;BME280;57644;48.416;-123.374;2022-10-16T03:47:42;101374.81;;;8.18;70.79
70250;BME280;57644;48.416;-123.374;2022-10-16T03:50:12;101372.21;;;8.24;70.46
70250;BME280;57644;48.416;-123.374;2022-10-16T03:52:44;101377.36;;;8.28;70.21
70250;BME280;57644;48.416;-123.374;2022-10-16T03:55:14;101375.93;;;8.32;70.18
70250;BME280;57644;48.416;-123.374;2022-10-16T03:57:45;101374.33;;;8.34;70.03
70250;BME280;57644;48.416;-123.374;2022-10-16T04:00:15;101378.35;;;8.30;70.16
70250;BME280;57644;48.416;-123.374;2022-10-16T04:02:45;101376.69;;;8.20;70.74
70250;BME280;57644;48.416;-123.374;2022-10-16T04:05:16;101377.98;;;8.12;70.63
70250;BME280;57644;48.416;-123.374;2022-10-16T04:07:46;101375.29;;;8.11;70.53
70250;BME280;57644;48.416;-123.374;2022-10-16T04:10:17;101373.06;;;8.00;71.67
70250;BME280;57644;48.416;-123.374;2022-10-16T04:12:46;101376.79;;;8.02;71.35
70250;BME280;57644;48.416;-123.374;2022-10-16T04:15:17;101379.59;;;8.08;70.68
70250;BME280;57644;48.416;-123.374;2022-10-16T04:17:47;101375.81;;;8.09;70.86
70250;BME280;57644;48.416;-123.374;2022-10-16T04:20:18;101375.37;;;8.06;71.32
70250;BME280;57644;48.416;-123.374;2022-10-16T04:22:48;101377.68;;;8.04;71.08
70250;BME280;57644;48.416;-123.374;2022-10-16T04:25:19;101370.71;;;8.04;71.15
70250;BME280;57644;48.416;-123.374;2022-10-16T04:27:49;101369.66;;;8.05;71.15
70250;BME280;57644;48.416;-123.374;2022-10-16T04:30:20;101370.08;;;8.05;71.15
70250;BME280;57644;48.416;-123.374;2022-10-16T04:32:51;101365.98;;;8.06;70.86
70250;BME280;57644;48.416;-123.374;2022-10-16T04:35:22;101363.45;;;8.04;71.28
70250;BME280;57644;48.416;-123.374;2022-10-16T04:37:51;101364.80;;;8.05;71.66
70250;BME280;57644;48.416;-123.374;2022-10-16T04:40:21;101366.19;;;8.09;71.36
70250;BME280;57644;48.416;-123.374;2022-10-16T04:42:52;101365.13;;;8.12;71.35
70250;BME280;57644;48.416;-123.374;2022-10-16T04:45:21;101367.80;;;8.15;71.35
70250;BME280;57644;48.416;-123.374;2022-10-16T04:47:52;101367.99;;;8.19;70.77
70250;BME280;57644;48.416;-123.374;2022-10-16T04:50:22;101366.13;;;8.23;70.31
70250;BME280;57644;48.416;-123.374;2022-10-16T04:52:54;101364.43;;;8.23;70.23
70250;BME280;57644;48.416;-123.374;2022-10-16T04:55:26;101364.85;;;8.23;69.76
70250;BME280;57644;48.416;-123.374;2022-10-16T04:57:55;101362.22;;;8.22;68.81
70250;BME280;57644;48.416;-123.374;2022-10-16T05:00:24;101362.19;;;8.18;68.57
70250;BME280;57644;48.416;-123.374;2022-10-16T05:05:27;101369.22;;;8.26;68.41
70250;BME280;57644;48.416;-123.374;2022-10-16T05:07:58;101370.11;;;8.23;68.50
70250;BME280;57644;48.416;-123.374;2022-10-16T05:10:30;101371.37;;;8.21;68.22
70250;BME280;57644;48.416;-123.374;2022-10-16T05:15:26;101370.73;;;8.40;68.14
70250;BME280;57644;48.416;-123.374;2022-10-16T05:17:56;101369.13;;;8.45;67.79
70250;BME280;57644;48.416;-123.374;2022-10-16T05:20:26;101370.24;;;8.50;67.68
70250;BME280;57644;48.416;-123.374;2022-10-16T05:22:57;101368.73;;;8.50;67.56
70250;BME280;57644;48.416;-123.374;2022-10-16T05:25:27;101367.51;;;8.55;67.57
70250;BME280;57644;48.416;-123.374;2022-10-16T05:27:58;101367.22;;;8.57;67.54
70250;BME280;57644;48.416;-123.374;2022-10-16T05:30:28;101364.16;;;8.61;67.40
70250;BME280;57644;48.416;-123.374;2022-10-16T05:32:58;101365.03;;;8.60;67.59
70250;BME280;57644;48.416;-123.374;2022-10-16T05:35:28;101365.41;;;8.57;67.68
70250;BME280;57644;48.416;-123.374;2022-10-16T05:37:59;101365.84;;;8.55;67.54
70250;BME280;57644;48.416;-123.374;2022-10-16T05:40:30;101365.03;;;8.59;67.57
70250;BME280;57644;48.416;-123.374;2022-10-16T05:43:00;101361.10;;;8.54;67.59
70250;BME280;57644;48.416;-123.374;2022-10-16T05:45:32;101361.12;;;8.55;67.54
70250;BME280;57644;48.416;-123.374;2022-10-16T05:48:01;101359.60;;;8.57;67.49
70250;BME280;57644;48.416;-123.374;2022-10-16T05:50:30;101357.13;;;8.55;67.63
70250;BME280;57644;48.416;-123.374;2022-10-16T05:53:01;101359.86;;;8.61;67.26
70250;BME280;57644;48.416;-123.374;2022-10-16T05:55:31;101359.50;;;8.53;67.66
70250;BME280;57644;48.416;-123.374;2022-10-16T05:58:02;101358.20;;;8.52;67.83
70250;BME280;57644;48.416;-123.374;2022-10-16T06:00:31;101362.44;;;8.54;67.67
70250;BME280;57644;48.416;-123.374;2022-10-16T06:03:02;101361.70;;;8.58;67.35
70250;BME280;57644;48.416;-123.374;2022-10-16T06:05:32;101362.78;;;8.57;67.45
70250;BME280;57644;48.416;-123.374;2022-10-16T06:08:02;101359.49;;;8.59;67.21
70250;BME280;57644;48.416;-123.374;2022-10-16T06:10:32;101365.11;;;8.58;67.21
70250;BME280;57644;48.416;-123.374;2022-10-16T06:13:03;101365.91;;;8.58;67.41
70250;BME280;57644;48.416;-123.374;2022-10-16T06:15:33;101366.74;;;8.60;67.20
70250;BME280;57644;48.416;-123.374;2022-10-16T06:18:03;101369.34;;;8.60;67.38
70250;BME280;57644;48.416;-123.374;2022-10-16T06:20:33;101370.70;;;8.58;67.62
70250;BME280;57644;48.416;-123.374;2022-10-16T06:23:04;101370.91;;;8.53;67.74
70250;BME280;57644;48.416;-123.374;2022-10-16T06:25:34;101369.99;;;8.50;67.76
70250;BME280;57644;48.416;-123.374;2022-10-16T06:28:05;101367.29;;;8.51;67.73
70250;BME280;57644;48.416;-123.374;2022-10-16T06:30:35;101366.87;;;8.47;67.95
70250;BME280;57644;48.416;-123.374;2022-10-16T06:33:05;101372.14;;;8.41;67.97
70250;BME280;57644;48.416;-123.374;2022-10-16T06:35:36;101369.38;;;8.38;67.86
70250;BME280;57644;48.416;-123.374;2022-10-16T06:38:06;101367.69;;;8.36;68.04
70250;BME280;57644;48.416;-123.374;2022-10-16T06:40:36;101366.80;;;8.36;67.86
70250;BME280;57644;48.416;-123.374;2022-10-16T06:43:07;101367.32;;;8.38;67.76
70250;BME280;57644;48.416;-123.374;2022-10-16T06:45:37;101366.19;;;8.43;67.57
70250;BME280;57644;48.416;-123.374;2022-10-16T06:48:08;101366.13;;;8.43;67.70
70250;BME280;57644;48.416;-123.374;2022-10-16T06:50:38;101365.50;;;8.47;67.53
70250;BME280;57644;48.416;-123.374;2022-10-16T06:53:09;101365.84;;;8.46;67.68
70250;BME280;57644;48.416;-123.374;2022-10-16T06:55:39;101365.32;;;8.45;67.62
70250;BME280;57644;48.416;-123.374;2022-10-16T06:58:09;101367.31;;;8.35;67.90
70250;BME280;57644;48.416;-123.374;2022-10-16T07:00:40;101370.47;;;8.34;67.89
70250;BME280;57644;48.416;-123.374;2022-10-16T07:03:11;101367.73;;;8.33;67.97
70250;BME280;57644;48.416;-123.374;2022-10-16T07:05:41;101371.21;;;8.35;67.59
70250;BME280;57644;48.416;-123.374;2022-10-16T07:08:11;101367.59;;;8.36;67.66
70250;BME280;57644;48.416;-123.374;2022-10-16T07:10:41;101369.97;;;8.40;67.91
70250;BME280;57644;48.416;-123.374;2022-10-16T07:13:12;101372.99;;;8.40;67.98
70250;BME280;57644;48.416;-123.374;2022-10-16T07:15:42;101368.36;;;8.43;67.34
70250;BME280;57644;48.416;-123.374;2022-10-16T07:18:12;101366.73;;;8.46;66.92
70250;BME280;57644;48.416;-123.374;2022-10-16T07:20:43;101368.57;;;8.39;67.25
70250;BME280;57644;48.416;-123.374;2022-10-16T07:23:13;101366.28;;;8.41;67.23
70250;BME280;57644;48.416;-123.374;2022-10-16T07:25:44;101366.51;;;8.47;66.50
70250;BME280;57644;48.416;-123.374;2022-10-16T07:28:14;101367.63;;;8.45;65.87
70250;BME280;57644;48.416;-123.374;2022-10-16T07:30:44;101367.17;;;8.51;65.72
70250;BME280;57644;48.416;-123.374;2022-10-16T07:33:15;101367.20;;;8.57;65.59
70250;BME280;57644;48.416;-123.374;2022-10-16T07:35:50;101370.11;;;8.60;65.44
70250;BME280;57644;48.416;-123.374;2022-10-16T07:38:15;101369.64;;;8.59;65.25
70250;BME280;57644;48.416;-123.374;2022-10-16T07:40:45;101366.69;;;8.58;64.78
70250;BME280;57644;48.416;-123.374;2022-10-16T07:43:16;101363.61;;;8.61;64.64
70250;BME280;57644;48.416;-123.374;2022-10-16T07:45:48;101366.04;;;8.59;64.65
70250;BME280;57644;48.416;-123.374;2022-10-16T07:48:17;101365.48;;;8.60;64.61
70250;BME280;57644;48.416;-123.374;2022-10-16T07:50:46;101366.62;;;8.58;64.32
70250;BME280;57644;48.416;-123.374;2022-10-16T07:53:17;101373.06;;;8.64;64.29
70250;BME280;57644;48.416;-123.374;2022-10-16T07:55:47;101375.93;;;8.65;64.11
70250;BME280;57644;48.416;-123.374;2022-10-16T07:58:17;101371.09;;;8.65;64.01
70250;BME280;57644;48.416;-123.374;2022-10-16T08:00:48;101370.19;;;8.60;64.10
70250;BME280;57644;48.416;-123.374;2022-10-16T08:03:18;101371.08;;;8.59;64.23
70250;BME280;57644;48.416;-123.374;2022-10-16T08:05:48;101374.55;;;8.68;63.76
70250;BME280;57644;48.416;-123.374;2022-10-16T08:08:19;101373.94;;;8.69;63.28
70250;BME280;57644;48.416;-123.374;2022-10-16T08:10:49;101372.03;;;8.67;63.05
70250;BME280;57644;48.416;-123.374;2022-10-16T08:13:21;101369.78;;;8.71;62.90
70250;BME280;57644;48.416;-123.374;2022-10-16T08:15:51;101376.10;;;8.77;62.97
70250;BME280;57644;48.416;-123.374;2022-10-16T08:18:21;101373.06;;;8.81;62.78
70250;BME280;57644;48.416;-123.374;2022-10-16T08:20:56;101373.46;;;8.83;62.79
70250;BME280;57644;48.416;-123.374;2022-10-16T08:23:21;101377.82;;;8.86;62.48
70250;BME280;57644;48.416;-123.374;2022-10-16T08:25:52;101378.47;;;8.80;62.33
70250;BME280;57644;48.416;-123.374;2022-10-16T08:28:23;101376.81;;;8.84;62.25
70250;BME280;57644;48.416;-123.374;2022-10-16T08:30:52;101381.07;;;8.85;61.87
70250;BME280;57644;48.416;-123.374;2022-10-16T08:33:24;101385.74;;;8.90;62.17
70250;BME280;57644;48.416;-123.374;2022-10-16T08:35:54;101385.69;;;8.85;61.92
70250;BME280;57644;48.416;-123.374;2022-10-16T08:38:24;101388.10;;;8.85;61.76
70250;BME280;57644;48.416;-123.374;2022-10-16T08:41:10;101389.32;;;8.92;61.75
70250;BME280;57644;48.416;-123.374;2022-10-16T08:43:34;101387.48;;;8.97;61.64
70250;BME280;57644;48.416;-123.374;2022-10-16T08:46:04;101392.17;;;8.98;61.59
70250;BME280;57644;48.416;-123.374;2022-10-16T08:48:30;101392.84;;;9.02;61.43
70250;BME280;57644;48.416;-123.374;2022-10-16T08:50:55;101393.32;;;9.05;61.41
70250;BME280;57644;48.416;-123.374;2022-10-16T08:53:30;101392.78;;;9.05;61.49
70250;BME280;57644;48.416;-123.374;2022-10-16T08:55:57;101394.17;;;9.07;61.60
70250;BME280;57644;48.416;-123.374;2022-10-16T08:58:29;101391.48;;;9.02;61.53
70250;BME280;57644;48.416;-123.374;2022-10-16T09:00:59;101395.43;;;9.01;61.75
70250;BME280;57644;48.416;-123.374;2022-10-16T09:03:39;101391.12;;;9.03;61.72
70250;BME280;57644;48.416;-123.374;2022-10-16T09:06:12;101389.52;;;9.02;61.49
70250;BME280;57644;48.416;-123.374;2022-10-16T09:08:36;101391.31;;;8.99;61.67
70250;BME280;57644;48.416;-123.374;2022-10-16T09:11:02;101392.99;;;8.96;61.54
70250;BME280;57644;48.416;-123.374;2022-10-16T09:13:33;101396.05;;;8.90;61.36
70250;BME280;57644;48.416;-123.374;2022-10-16T09:16:11;101386.54;;;8.95;61.43
70250;BME280;57644;48.416;-123.374;2022-10-16T09:18:37;101382.28;;;8.83;61.21
70250;BME280;57644;48.416;-123.374;2022-10-16T09:21:06;101384.69;;;8.76;61.42
70250;BME280;57644;48.416;-123.374;2022-10-16T09:23:35;101385.85;;;8.72;61.42
70250;BME280;57644;48.416;-123.374;2022-10-16T09:26:02;101390.01;;;8.62;61.41
70250;BME280;57644;48.416;-123.374;2022-10-16T09:28:33;101390.14;;;8.62;61.66
70250;BME280;57644;48.416;-123.374;2022-10-16T09:31:03;101388.73;;;8.66;61.37
70250;BME280;57644;48.416;-123.374;2022-10-16T09:33:36;101381.92;;;8.67;61.03
70250;BME280;57644;48.416;-123.374;2022-10-16T09:36:05;101376.72;;;8.64;60.93
70250;BME280;57644;48.416;-123.374;2022-10-16T09:38:35;101374.07;;;8.62;61.05
70250;BME280;57644;48.416;-123.374;2022-10-16T09:41:13;101371.85;;;8.66;60.50
70250;BME280;57644;48.416;-123.374;2022-10-16T09:43:40;101377.79;;;8.76;60.76
70250;BME280;57644;48.416;-123.374;2022-10-16T09:46:07;101379.36;;;8.84;60.26
70250;BME280;57644;48.416;-123.374;2022-10-16T09:48:39;101383.70;;;8.83;59.93
70250;BME280;57644;48.416;-123.374;2022-10-16T09:53:41;101373.68;;;8.74;59.60
70250;BME280;57644;48.416;-123.374;2022-10-16T09:56:09;101375.47;;;8.84;59.91
70250;BME280;57644;48.416;-123.374;2022-10-16T09:58:38;101379.66;;;8.87;59.69
70250;BME280;57644;48.416;-123.374;2022-10-16T10:01:14;101380.31;;;8.79;59.77
70250;BME280;57644;48.416;-123.374;2022-10-16T10:03:41;101378.55;;;8.85;59.52
70250;BME280;57644;48.416;-123.374;2022-10-16T10:06:18;101372.94;;;8.93;59.49
70250;BME280;57644;48.416;-123.374;2022-10-16T10:08:40;101375.04;;;8.97;59.58
70250;BME280;57644;48.416;-123.374;2022-10-16T10:11:10;101375.91;;;8.89;59.30
70250;BME280;57644;48.416;-123.374;2022-10-16T10:13:41;101373.46;;;9.01;59.32
70250;BME280;57644;48.416;-123.374;2022-10-16T10:16:12;101375.34;;;9.00;58.93
70250;BME280;57644;48.416;-123.374;2022-10-16T10:18:42;101373.06;;;9.03;59.09
70250;BME280;57644;48.416;-123.374;2022-10-16T10:21:15;101372.79;;;8.93;58.76
70250;BME280;57644;48.416;-123.374;2022-10-16T10:23:43;101369.47;;;9.03;58.95
70250;BME280;57644;48.416;-123.374;2022-10-16T10:26:17;101372.45;;;9.09;58.85
70250;BME280;57644;48.416;-123.374;2022-10-16T10:28:53;101369.90;;;9.14;58.76
70250;BME280;57644;48.416;-123.374;2022-10-16T10:31:21;101369.00;;;9.09;58.20
70250;BME280;57644;48.416;-123.374;2022-10-16T10:33:52;101363.40;;;9.14;58.58
70250;BME280;57644;48.416;-123.374;2022-10-16T10:36:27;101361.62;;;9.13;58.44
70250;BME280;57644;48.416;-123.374;2022-10-16T10:38:52;101362.10;;;9.15;58.32
70250;BME280;57644;48.416;-123.374;2022-10-16T10:43:58;101362.41;;;9.04;58.25
70250;BME280;57644;48.416;-123.374;2022-10-16T10:46:25;101359.67;;;9.15;58.68
70250;BME280;57644;48.416;-123.374;2022-10-16T10:48:58;101361.32;;;9.06;58.57
70250;BME280;57644;48.416;-123.374;2022-10-16T10:51:22;101360.28;;;9.13;58.75
70250;BME280;57644;48.416;-123.374;2022-10-16T10:53:52;101359.72;;;9.07;58.87
70250;BME280;57644;48.416;-123.374;2022-10-16T10:56:34;101362.61;;;9.11;58.70
70250;BME280;57644;48.416;-123.374;2022-10-16T10:59:00;101360.68;;;9.08;58.70
70250;BME280;57644;48.416;-123.374;2022-10-16T11:01:25;101365.09;;;9.05;58.81
70250;BME280;57644;48.416;-123.374;2022-10-16T11:03:58;101365.51;;;8.99;59.07
70250;BME280;57644;48.416;-123.374;2022-10-16T11:06:22;101364.87;;;8.91;59.30
70250;BME280;57644;48.416;-123.374;2022-10-16T11:08:53;101368.69;;;8.88;59.22
70250;BME280;57644;48.416;-123.374;2022-10-16T11:11:25;101369.66;;;8.80;59.39
70250;BME280;57644;48.416;-123.374;2022-10-16T11:13:56;101365.78;;;8.78;59.56
70250;BME280;57644;48.416;-123.374;2022-10-16T11:16:26;101365.94;;;8.76;59.54
70250;BME280;57644;48.416;-123.374;2022-10-16T11:18:58;101364.65;;;8.76;59.71
70250;BME280;57644;48.416;-123.374;2022-10-16T11:21:23;101365.54;;;8.81;59.63
70250;BME280;57644;48.416;-123.374;2022-10-16T11:23:57;101366.83;;;8.83;59.56
70250;BME280;57644;48.416;-123.374;2022-10-16T11:26:26;101369.00;;;8.64;59.76
70250;BME280;57644;48.416;-123.374;2022-10-16T11:28:56;101363.75;;;8.61;59.76
70250;BME280;57644;48.416;-123.374;2022-10-16T11:31:30;101360.22;;;8.68;59.76
70250;BME280;57644;48.416;-123.374;2022-10-16T11:34:01;101354.10;;;8.63;59.65
70250;BME280;57644;48.416;-123.374;2022-10-16T11:36:31;101351.52;;;8.60;59.81
70250;BME280;57644;48.416;-123.374;2022-10-16T11:39:00;101344.88;;;8.59;59.81
70250;BME280;57644;48.416;-123.374;2022-10-16T11:41:32;101346.24;;;8.56;59.83
70250;BME280;57644;48.416;-123.374;2022-10-16T11:44:06;101348.51;;;8.67;59.67
70250;BME280;57644;48.416;-123.374;2022-10-16T11:46:28;101346.49;;;8.71;59.51
70250;BME280;57644;48.416;-123.374;2022-10-16T11:49:03;101346.58;;;8.66;59.11
70250;BME280;57644;48.416;-123.374;2022-10-16T11:51:33;101348.09;;;8.70;59.17
70250;BME280;57644;48.416;-123.374;2022-10-16T11:54:02;101347.73;;;8.67;59.32
70250;BME280;57644;48.416;-123.374;2022-10-16T11:56:29;101346.63;;;8.60;59.20
70250;BME280;57644;48.416;-123.374;2022-10-16T11:59:01;101346.01;;;8.61;59.35
70250;BME280;57644;48.416;-123.374;2022-10-16T12:01:33;101346.54;;;8.62;59.46
70250;BME280;57644;48.416;-123.374;2022-10-16T12:06:34;101341.83;;;8.72;59.02
70250;BME280;57644;48.416;-123.374;2022-10-16T12:09:00;101340.96;;;8.75;58.69
70250;BME280;57644;48.416;-123.374;2022-10-16T12:11:36;101340.17;;;8.68;58.75
70250;BME280;57644;48.416;-123.374;2022-10-16T12:14:06;101336.90;;;8.75;58.70
70250;BME280;57644;48.416;-123.374;2022-10-16T12:16:30;101343.00;;;8.70;58.54
70250;BME280;57644;48.416;-123.374;2022-10-16T12:19:12;101344.94;;;8.71;58.54
70250;BME280;57644;48.416;-123.374;2022-10-16T12:21:32;101342.02;;;8.69;58.56
70250;BME280;57644;48.416;-123.374;2022-10-16T12:24:04;101347.18;;;8.76;58.58
70250;BME280;57644;48.416;-123.374;2022-10-16T12:26:38;101348.11;;;8.55;58.70
70250;BME280;57644;48.416;-123.374;2022-10-16T12:29:13;101345.49;;;8.41;58.87
70250;BME280;57644;48.416;-123.374;2022-10-16T12:31:39;101345.97;;;8.54;58.59
70250;BME280;57644;48.416;-123.374;2022-10-16T12:34:05;101344.16;;;8.61;58.78
70250;BME280;57644;48.416;-123.374;2022-10-16T12:36:36;101344.36;;;8.67;58.74
70250;BME280;57644;48.416;-123.374;2022-10-16T12:41:37;101344.90;;;8.67;58.64
70250;BME280;57644;48.416;-123.374;2022-10-16T12:46:39;101349.20;;;8.62;58.39
70250;BME280;57644;48.416;-123.374;2022-10-16T12:49:21;101351.26;;;8.63;58.34
70250;BME280;57644;48.416;-123.374;2022-10-16T12:51:37;101350.69;;;8.63;58.30
70250;BME280;57644;48.416;-123.374;2022-10-16T12:54:14;101354.43;;;8.64;58.77
70250;BME280;57644;48.416;-123.374;2022-10-16T12:56:46;101352.20;;;8.40;59.07
70250;BME280;57644;48.416;-123.374;2022-10-16T12:59:18;101350.71;;;8.39;59.25
70250;BME280;57644;48.416;-123.374;2022-10-16T13:01:52;101352.20;;;8.47;59.33